No particular awareness of the weather is required.    There are no Weather-warnings


Meteo18 Weather Cam more information Meteo18 Weather Cam


Thunder radar more information blitzortung!


Rain radar more information rain snow radar


Visit our other weather sites:

Template documentation
and downloads

And another site



Weather Underground History page Text

Daily Summary for March 5, 2016 Units:  Metric    English   Both
« Previous Day
Next Day »
Daily Weekly Monthly Yearly Custom
  High: Low: Average:
Temperature: 4.6 °C 0.4 °C 2.9 °C
Dew Point: 3.7 °C -0.2 °C 1.9 °C
Humidity: 96 % 87 % 93 %
Wind Speed: 11.3 km/h 0.0 km/h 1.7 km/h
Wind Gust: 17.7 km/h - -
Wind:- - SSE
Pressure: 1003.9 hPa 993.5 hPa -
Precipitation: 11.2 mm    
Historical Graphs
 
 
Tabular Data for March 5, 2016
Time Temperature Dew Point Pressure Wind Wind Speed Wind Gust Humidity Rainfall Rate (Hourly)
00:02 4.6 °C 3.7 °C 993.5 hPa SW 3.2 km/h 14.5 km/h 94 % 0.5 mm
00:07 4.5 °C 3.6 °C 993.5 hPa West 1.6 km/h 14.5 km/h 94 % 0.3 mm
00:12 4.4 °C 3.5 °C 993.5 hPa WSW 1.6 km/h 11.3 km/h 94 % 0.3 mm
00:22 4.2 °C 3.3 °C 993.8 hPa WSW 1.6 km/h 9.7 km/h 94 % 0.0 mm
00:32 3.9 °C 3.0 °C 994.1 hPa WSW 1.6 km/h 9.7 km/h 94 % 0.0 mm
00:42 3.7 °C 2.8 °C 993.8 hPa SW 1.6 km/h 14.5 km/h 94 % 0.0 mm
00:47 3.7 °C 2.8 °C 994.1 hPa WSW 8.0 km/h 14.5 km/h 94 % 0.0 mm
00:52 3.7 °C 2.8 °C 994.1 hPa WSW 3.2 km/h 14.5 km/h 94 % 0.0 mm
00:57 3.7 °C 2.8 °C 994.1 hPa West 3.2 km/h 14.5 km/h 94 % 0.0 mm
01:07 3.7 °C 2.8 °C 993.8 hPa SW 3.2 km/h 11.3 km/h 94 % 0.0 mm
01:12 3.6 °C 2.9 °C 993.8 hPa SW 4.8 km/h 11.3 km/h 95 % 0.0 mm
01:22 3.5 °C 2.8 °C 993.8 hPa Calm   11.3 km/h 95 % 0.0 mm
01:27 3.4 °C 2.7 °C 993.8 hPa Calm   11.3 km/h 95 % 0.0 mm
01:32 3.4 °C 2.5 °C 993.8 hPa SSW 3.2 km/h 11.3 km/h 94 % 0.0 mm
01:37 3.3 °C 2.6 °C 993.8 hPa Calm   9.7 km/h 95 % 0.0 mm
01:42 3.3 °C 2.6 °C 993.8 hPa SSW 3.2 km/h 8.0 km/h 95 % 0.0 mm
01:47 3.2 °C 2.5 °C 994.1 hPa Calm   11.3 km/h 95 % 0.0 mm
01:52 3.2 °C 2.5 °C 994.1 hPa WSW 1.6 km/h 11.3 km/h 95 % 0.0 mm
01:57 3.2 °C 2.5 °C 994.1 hPa WSW 1.6 km/h 11.3 km/h 95 % 0.0 mm
02:02 3.2 °C 2.5 °C 994.1 hPa West 3.2 km/h 8.0 km/h 95 % 0.0 mm
02:07 3.2 °C 2.5 °C 994.1 hPa Calm   8.0 km/h 95 % 0.0 mm
02:12 3.2 °C 2.5 °C 994.1 hPa Calm   9.7 km/h 95 % 0.0 mm
02:17 3.2 °C 2.5 °C 994.1 hPa SW 3.2 km/h 9.7 km/h 95 % 0.0 mm
02:22 3.2 °C 2.5 °C 994.1 hPa South 1.6 km/h 9.7 km/h 95 % 0.0 mm
02:27 3.3 °C 2.6 °C 994.1 hPa Calm   9.7 km/h 95 % 0.0 mm
02:32 3.3 °C 2.6 °C 994.1 hPa Calm   9.7 km/h 95 % 0.0 mm
02:37 3.2 °C 2.5 °C 994.1 hPa SSW 1.6 km/h 9.7 km/h 95 % 0.0 mm
02:42 3.2 °C 2.5 °C 994.1 hPa Calm   9.7 km/h 95 % 0.0 mm
02:47 3.3 °C 2.6 °C 994.1 hPa SW 3.2 km/h 9.7 km/h 95 % 0.0 mm
02:52 3.3 °C 2.6 °C 994.1 hPa SW 3.2 km/h 9.7 km/h 95 % 0.0 mm
02:57 3.4 °C 2.7 °C 994.1 hPa SW 1.6 km/h 12.9 km/h 95 % 0.0 mm
03:02 3.4 °C 2.7 °C 994.5 hPa SW 3.2 km/h 12.9 km/h 95 % 0.0 mm
03:07 3.4 °C 2.7 °C 994.5 hPa SW 4.8 km/h 11.3 km/h 95 % 0.0 mm
03:12 3.4 °C 2.7 °C 994.1 hPa Calm   11.3 km/h 95 % 0.0 mm
03:17 3.4 °C 2.7 °C 994.1 hPa SW 3.2 km/h 8.0 km/h 95 % 0.0 mm
03:22 3.5 °C 2.6 °C 994.1 hPa WSW 3.2 km/h 9.7 km/h 94 % 0.0 mm
03:27 3.5 °C 2.5 °C 994.1 hPa SW 3.2 km/h 14.5 km/h 93 % 0.0 mm
03:32 3.6 °C 2.6 °C 994.1 hPa WSW 4.8 km/h 14.5 km/h 93 % 0.0 mm
03:37 3.5 °C 2.5 °C 994.1 hPa WSW 11.3 km/h 14.5 km/h 93 % 0.0 mm
03:42 3.4 °C 2.4 °C 994.5 hPa SW 3.2 km/h 12.9 km/h 93 % 0.0 mm
03:47 3.4 °C 2.4 °C 994.1 hPa WSW 6.4 km/h 12.9 km/h 93 % 0.0 mm
03:52 3.3 °C 2.1 °C 994.5 hPa SW 1.6 km/h 12.9 km/h 92 % 0.0 mm
03:57 3.2 °C 2.0 °C 994.5 hPa WSW 3.2 km/h 12.9 km/h 92 % 0.0 mm
04:02 3.1 °C 1.9 °C 994.5 hPa Calm   12.9 km/h 92 % 0.0 mm
04:07 3.0 °C 1.8 °C 994.5 hPa SW 6.4 km/h 11.3 km/h 92 % 0.0 mm
04:12 3.1 °C 2.1 °C 994.5 hPa ESE 1.6 km/h 9.7 km/h 93 % 0.0 mm
04:17 3.1 °C 2.1 °C 994.5 hPa SW 1.6 km/h 9.7 km/h 93 % 0.0 mm
04:22 3.1 °C 2.1 °C 994.5 hPa Calm   9.7 km/h 93 % 0.0 mm
04:27 3.0 °C 1.8 °C 994.5 hPa SW 1.6 km/h 9.7 km/h 92 % 0.0 mm
04:32 2.9 °C 1.7 °C 994.8 hPa SW 3.2 km/h 9.7 km/h 92 % 0.0 mm
04:37 2.9 °C 1.7 °C 994.5 hPa SW 3.2 km/h 11.3 km/h 92 % 0.0 mm
04:47 2.8 °C 1.8 °C 994.8 hPa Calm   11.3 km/h 93 % 0.0 mm
04:52 2.8 °C 1.8 °C 994.5 hPa Calm   4.8 km/h 93 % 0.0 mm
04:57 2.9 °C 1.9 °C 994.5 hPa Calm   4.8 km/h 93 % 0.0 mm
05:02 2.9 °C 1.9 °C 994.5 hPa Calm   3.2 km/h 93 % 0.0 mm
05:07 2.9 °C 2.0 °C 994.5 hPa Calm   3.2 km/h 94 % 0.0 mm
05:12 2.9 °C 2.0 °C 994.5 hPa West 1.6 km/h 3.2 km/h 94 % 0.0 mm
05:17 2.9 °C 2.0 °C 994.5 hPa WSW 1.6 km/h 4.8 km/h 94 % 0.0 mm
05:22 2.9 °C 1.9 °C 994.8 hPa SW 1.6 km/h 4.8 km/h 93 % 0.0 mm
05:27 2.9 °C 1.9 °C 994.5 hPa Calm   6.4 km/h 93 % 0.0 mm
05:32 2.9 °C 1.9 °C 994.5 hPa WNW 3.2 km/h 9.7 km/h 93 % 0.0 mm
05:37 2.9 °C 1.9 °C 994.8 hPa Calm   9.7 km/h 93 % 0.0 mm
05:42 2.9 °C 1.9 °C 994.5 hPa Calm   9.7 km/h 93 % 0.0 mm
05:47 2.9 °C 1.9 °C 994.8 hPa Calm   9.7 km/h 93 % 0.0 mm
05:52 2.9 °C 2.0 °C 994.5 hPa SW 4.8 km/h 6.4 km/h 94 % 0.0 mm
05:57 2.9 °C 2.0 °C 994.5 hPa SW 1.6 km/h 9.7 km/h 94 % 0.0 mm
06:02 2.9 °C 2.0 °C 994.5 hPa Calm   9.7 km/h 94 % 0.0 mm
06:07 2.9 °C 2.0 °C 994.5 hPa WSW 1.6 km/h 9.7 km/h 94 % 0.0 mm
06:12 2.9 °C 2.0 °C 994.5 hPa SW 1.6 km/h 6.4 km/h 94 % 0.0 mm
06:17 2.9 °C 2.0 °C 994.5 hPa Calm   4.8 km/h 94 % 0.0 mm
06:22 2.9 °C 2.2 °C 994.5 hPa Calm   1.6 km/h 95 % 0.0 mm
06:27 2.9 °C 2.2 °C 994.5 hPa Calm   1.6 km/h 95 % 0.0 mm
06:32 2.9 °C 2.2 °C 994.5 hPa SSW 3.2 km/h 3.2 km/h 95 % 0.0 mm
06:37 2.9 °C 2.2 °C 994.5 hPa SW 1.6 km/h 6.4 km/h 95 % 0.0 mm
06:42 3.0 °C 2.3 °C 994.5 hPa SSE 1.6 km/h 6.4 km/h 95 % 0.0 mm
06:47 3.0 °C 2.1 °C 994.5 hPa WSW 6.4 km/h 6.4 km/h 94 % 0.0 mm
06:52 3.1 °C 2.2 °C 994.5 hPa Calm   6.4 km/h 94 % 0.0 mm
06:57 3.1 °C 2.4 °C 994.5 hPa SW 1.6 km/h 6.4 km/h 95 % 0.0 mm
07:06 3.1 °C 2.4 °C 994.5 hPa Calm   6.4 km/h 95 % 0.0 mm
07:17 3.1 °C 2.4 °C 994.5 hPa Calm   1.6 km/h 95 % 0.0 mm
07:33 3.1 °C 2.5 °C 994.5 hPa Calm   1.6 km/h 96 % 0.0 mm
07:51 3.1 °C 2.5 °C 994.1 hPa Calm   1.6 km/h 96 % 0.3 mm
08:13 3.0 °C 2.4 °C 994.1 hPa Calm   1.6 km/h 96 % 0.5 mm
10:07 0.9 °C 0.2 °C 993.8 hPa Calm     95 % 2.3 mm
10:16 0.8 °C 0.1 °C 993.8 hPa Calm     95 % 2.3 mm
10:22 0.6 °C 0.0 °C 993.8 hPa Calm     96 % 1.5 mm
10:27 0.6 °C 0.0 °C 993.8 hPa Calm     96 % 1.3 mm
10:32 0.6 °C 0.0 °C 993.8 hPa Calm     96 % 1.0 mm
10:37 0.6 °C 0.0 °C 993.8 hPa Calm     96 % 0.8 mm
10:42 0.5 °C -0.1 °C 993.8 hPa Calm     96 % 0.5 mm
10:47 0.4 °C -0.2 °C 993.8 hPa Calm     96 % 0.3 mm
10:52 0.4 °C -0.2 °C 993.8 hPa Calm   1.6 km/h 96 % 0.0 mm
10:57 0.4 °C -0.2 °C 993.8 hPa Calm   1.6 km/h 96 % 0.0 mm
11:02 0.4 °C -0.2 °C 993.8 hPa Calm   1.6 km/h 96 % 0.0 mm
11:07 0.5 °C -0.1 °C 993.8 hPa Calm   1.6 km/h 96 % 0.0 mm
11:12 0.6 °C 0.0 °C 993.8 hPa Calm   1.6 km/h 96 % 0.0 mm
11:19 0.6 °C 0.0 °C 993.8 hPa Calm   1.6 km/h 96 % 0.0 mm
11:33 0.8 °C 0.2 °C 993.8 hPa Calm   1.6 km/h 96 % 0.0 mm
11:42 0.8 °C 0.2 °C 993.8 hPa Calm   4.8 km/h 96 % 0.0 mm
11:47 0.8 °C 0.2 °C 993.8 hPa Calm   8.0 km/h 96 % 0.0 mm
11:57 0.9 °C 0.3 °C 994.1 hPa Calm   8.0 km/h 96 % 0.0 mm
12:02 0.9 °C 0.3 °C 994.1 hPa SSE 1.6 km/h 6.4 km/h 96 % 0.0 mm
12:07 0.9 °C 0.3 °C 994.1 hPa Calm   9.7 km/h 96 % 0.0 mm
12:27 0.9 °C 0.3 °C 994.1 hPa East 1.6 km/h 11.3 km/h 96 % 0.0 mm
12:32 0.9 °C 0.3 °C 994.1 hPa East 1.6 km/h 11.3 km/h 96 % 0.0 mm
12:52 1.1 °C 0.5 °C 994.5 hPa NNE 4.8 km/h 14.5 km/h 96 % 0.0 mm
12:57 1.1 °C 0.5 °C 994.8 hPa East 1.6 km/h 14.5 km/h 96 % 0.0 mm
13:07 1.2 °C 0.6 °C 994.8 hPa NE 4.8 km/h 9.7 km/h 96 % 0.3 mm
13:12 1.4 °C 0.8 °C 994.8 hPa Calm   14.5 km/h 96 % 0.5 mm
13:17 1.8 °C 1.2 °C 994.8 hPa NE 9.7 km/h 14.5 km/h 96 % 0.5 mm
13:27 2.2 °C 1.5 °C 995.1 hPa ENE 9.7 km/h 17.7 km/h 95 % 1.0 mm
13:32 2.2 °C 1.5 °C 995.1 hPa ENE 3.2 km/h 17.7 km/h 95 % 1.5 mm
13:42 1.9 °C 1.2 °C 995.1 hPa SE 4.8 km/h 17.7 km/h 95 % 2.0 mm
13:47 1.9 °C 1.2 °C 995.1 hPa ESE 9.7 km/h 17.7 km/h 95 % 2.3 mm
13:52 1.8 °C 1.1 °C 995.5 hPa NE 4.8 km/h 17.7 km/h 95 % 2.3 mm
14:02 1.8 °C 1.1 °C 995.5 hPa NE 4.8 km/h 14.5 km/h 95 % 2.5 mm
14:12 1.8 °C 1.1 °C 995.8 hPa East 6.4 km/h 16.1 km/h 95 % 2.5 mm
14:22 1.9 °C 1.2 °C 995.8 hPa NE 6.4 km/h 17.7 km/h 95 % 2.5 mm
14:27 2.1 °C 1.5 °C 995.8 hPa NE 4.8 km/h 17.7 km/h 96 % 2.3 mm
14:32 2.2 °C 1.6 °C 995.8 hPa NE 1.6 km/h 11.3 km/h 96 % 2.3 mm
14:37 2.4 °C 1.8 °C 996.2 hPa ENE 1.6 km/h 9.7 km/h 96 % 2.3 mm
14:42 2.5 °C 1.9 °C 996.2 hPa NE 3.2 km/h 9.7 km/h 96 % 2.3 mm
14:47 2.4 °C 1.7 °C 996.2 hPa NE 3.2 km/h 11.3 km/h 95 % 2.3 mm
14:52 2.6 °C 1.9 °C 996.5 hPa ENE 4.8 km/h 11.3 km/h 95 % 2.0 mm
14:57 2.7 °C 2.1 °C 996.5 hPa ENE 3.2 km/h 11.3 km/h 96 % 2.0 mm
15:02 2.9 °C 2.3 °C 996.5 hPa ENE 4.8 km/h 12.9 km/h 96 % 2.0 mm
15:07 3.2 °C 2.6 °C 996.8 hPa NNE 9.7 km/h 12.9 km/h 96 % 2.0 mm
15:12 3.4 °C 2.7 °C 996.8 hPa East 1.6 km/h 12.9 km/h 95 % 2.0 mm
15:17 3.4 °C 2.7 °C 996.8 hPa NE 4.8 km/h 17.7 km/h 95 % 2.0 mm
15:22 3.5 °C 2.6 °C 996.8 hPa NE 3.2 km/h 17.7 km/h 94 % 2.0 mm
15:27 3.6 °C 2.7 °C 997.2 hPa ENE 8.0 km/h 14.5 km/h 94 % 2.0 mm
15:32 3.7 °C 2.8 °C 997.2 hPa NE 1.6 km/h 12.9 km/h 94 % 2.3 mm
15:37 3.9 °C 3.0 °C 997.2 hPa ENE 9.7 km/h 12.9 km/h 94 % 2.3 mm
15:42 3.9 °C 2.9 °C 997.2 hPa NE 9.7 km/h 12.9 km/h 93 % 2.0 mm
15:47 4.0 °C 3.0 °C 997.2 hPa NE 8.0 km/h 11.3 km/h 93 % 2.0 mm
15:52 4.1 °C 2.9 °C 997.5 hPa NE 1.6 km/h 11.3 km/h 92 % 2.3 mm
15:57 4.1 °C 2.8 °C 997.5 hPa NE 4.8 km/h 9.7 km/h 91 % 2.0 mm
16:02 4.1 °C 2.8 °C 997.5 hPa ENE 9.7 km/h 11.3 km/h 91 % 2.0 mm
16:07 4.1 °C 2.8 °C 997.5 hPa ENE 4.8 km/h 16.1 km/h 91 % 1.8 mm
16:12 4.2 °C 3.0 °C 997.5 hPa Calm   16.1 km/h 92 % 1.5 mm
16:22 4.2 °C 2.7 °C 997.9 hPa ENE 3.2 km/h 8.0 km/h 90 % 1.3 mm
16:27 4.0 °C 2.4 °C 997.9 hPa NE 3.2 km/h 8.0 km/h 89 % 1.3 mm
16:32 4.0 °C 2.4 °C 998.2 hPa ENE 3.2 km/h 8.0 km/h 89 % 1.0 mm
16:37 4.1 °C 2.6 °C 998.2 hPa ENE 3.2 km/h 8.0 km/h 90 % 1.0 mm
16:42 4.1 °C 2.5 °C 998.2 hPa East 1.6 km/h 8.0 km/h 89 % 0.8 mm
16:57 3.9 °C 2.1 °C 998.5 hPa NE 1.6 km/h 8.0 km/h 88 % 0.5 mm
17:02 3.9 °C 2.3 °C 998.5 hPa Calm   8.0 km/h 89 % 0.5 mm
17:07 3.9 °C 2.3 °C 998.5 hPa NNE 1.6 km/h 8.0 km/h 89 % 0.5 mm
17:12 3.9 °C 2.3 °C 998.5 hPa ENE 1.6 km/h 6.4 km/h 89 % 0.3 mm
17:17 3.9 °C 2.1 °C 998.5 hPa Calm   3.2 km/h 88 % 0.3 mm
17:22 3.9 °C 2.3 °C 998.9 hPa Calm   6.4 km/h 89 % 0.3 mm
17:27 4.0 °C 2.2 °C 998.9 hPa East 3.2 km/h 6.4 km/h 88 % 0.3 mm
17:32 4.0 °C 2.2 °C 998.9 hPa ENE 1.6 km/h 6.4 km/h 88 % 0.3 mm
17:37 4.2 °C 2.2 °C 998.9 hPa Calm   6.4 km/h 87 % 0.3 mm
17:47 4.1 °C 2.1 °C 999.2 hPa Calm   3.2 km/h 87 % 0.3 mm
17:52 3.9 °C 2.1 °C 999.2 hPa NE 3.2 km/h 4.8 km/h 88 % 0.3 mm
17:57 3.8 °C 1.8 °C 999.5 hPa Calm   4.8 km/h 87 % 0.3 mm
18:02 3.6 °C 1.6 °C 999.5 hPa East 1.6 km/h 6.4 km/h 87 % 0.3 mm
18:07 3.5 °C 1.7 °C 999.5 hPa NE 1.6 km/h 6.4 km/h 88 % 0.3 mm
18:12 3.3 °C 1.5 °C 999.5 hPa Calm   6.4 km/h 88 % 0.3 mm
18:17 3.2 °C 1.4 °C 999.5 hPa Calm   4.8 km/h 88 % 0.3 mm
18:22 3.1 °C 1.3 °C 999.9 hPa Calm   3.2 km/h 88 % 0.3 mm
18:27 2.9 °C 1.3 °C 999.9 hPa Calm   1.6 km/h 89 % 0.3 mm
18:32 2.7 °C 1.2 °C 1000.2 hPa Calm     90 % 0.0 mm
18:42 2.3 °C 1.0 °C 1000.2 hPa Calm   1.6 km/h 91 % 0.0 mm
18:47 2.3 °C 1.1 °C 1000.6 hPa Calm   1.6 km/h 92 % 0.0 mm
18:52 2.4 °C 1.2 °C 1000.6 hPa SW 1.6 km/h 1.6 km/h 92 % 0.0 mm
18:57 2.6 °C 1.4 °C 1000.6 hPa Calm   1.6 km/h 92 % 0.0 mm
19:02 2.6 °C 1.4 °C 1000.6 hPa Calm   1.6 km/h 92 % 0.0 mm
19:12 2.9 °C 1.7 °C 1000.9 hPa SW 1.6 km/h 1.6 km/h 92 % 0.0 mm
19:17 3.0 °C 1.8 °C 1000.9 hPa Calm   3.2 km/h 92 % 0.0 mm
19:22 3.2 °C 1.9 °C 1001.2 hPa Calm   3.2 km/h 91 % 0.0 mm
19:27 3.2 °C 1.9 °C 1001.2 hPa Calm   3.2 km/h 91 % 0.0 mm
19:32 3.2 °C 1.9 °C 1001.2 hPa Calm   3.2 km/h 91 % 0.0 mm
19:37 3.2 °C 2.0 °C 1001.2 hPa Calm   1.6 km/h 92 % 0.0 mm
19:42 3.2 °C 2.0 °C 1001.2 hPa Calm     92 % 0.0 mm
19:47 3.2 °C 2.0 °C 1001.2 hPa Calm     92 % 0.0 mm
19:52 3.2 °C 2.0 °C 1001.6 hPa Calm     92 % 0.0 mm
19:57 3.3 °C 2.1 °C 1001.6 hPa SW 1.6 km/h 1.6 km/h 92 % 0.0 mm
20:02 3.3 °C 2.1 °C 1001.6 hPa SW 1.6 km/h 4.8 km/h 92 % 0.0 mm
20:07 3.3 °C 2.1 °C 1001.6 hPa Calm   4.8 km/h 92 % 0.0 mm
20:12 3.3 °C 2.1 °C 1001.9 hPa Calm   4.8 km/h 92 % 0.0 mm
20:17 3.3 °C 2.1 °C 1001.9 hPa Calm   4.8 km/h 92 % 0.0 mm
20:22 3.2 °C 2.0 °C 1001.9 hPa Calm     92 % 0.0 mm
20:32 3.2 °C 2.0 °C 1001.9 hPa Calm   1.6 km/h 92 % 0.0 mm
20:37 3.2 °C 2.0 °C 1001.9 hPa Calm   1.6 km/h 92 % 0.0 mm
20:42 3.2 °C 2.0 °C 1001.9 hPa Calm   1.6 km/h 92 % 0.0 mm
20:47 3.2 °C 2.0 °C 1002.3 hPa Calm   1.6 km/h 92 % 0.0 mm
20:52 3.2 °C 2.0 °C 1002.3 hPa Calm   3.2 km/h 92 % 0.0 mm
21:02 3.2 °C 2.0 °C 1002.3 hPa Calm   3.2 km/h 92 % 0.0 mm
21:07 3.2 °C 2.0 °C 1002.3 hPa Calm   1.6 km/h 92 % 0.0 mm
21:12 3.2 °C 2.2 °C 1002.3 hPa Calm   3.2 km/h 93 % 0.0 mm
21:17 3.1 °C 2.1 °C 1002.6 hPa Calm   3.2 km/h 93 % 0.0 mm
21:22 3.1 °C 2.1 °C 1002.6 hPa Calm   1.6 km/h 93 % 0.0 mm
21:29 3.1 °C 2.1 °C 1002.6 hPa Calm   1.6 km/h 93 % 0.0 mm
21:37 3.3 °C 2.1 °C 1002.6 hPa Calm   3.2 km/h 92 % 0.0 mm
21:42 3.3 °C 2.1 °C 1002.6 hPa Calm   3.2 km/h 92 % 0.0 mm
21:47 3.3 °C 2.1 °C 1002.6 hPa Calm   3.2 km/h 92 % 0.0 mm
21:52 3.3 °C 2.1 °C 1002.6 hPa Calm   3.2 km/h 92 % 0.0 mm
21:57 3.3 °C 2.1 °C 1002.6 hPa Calm   3.2 km/h 92 % 0.0 mm
22:02 3.3 °C 2.1 °C 1002.6 hPa Calm   3.2 km/h 92 % 0.0 mm
22:07 3.3 °C 2.0 °C 1002.9 hPa Calm   3.2 km/h 91 % 0.0 mm
22:12 3.3 °C 2.0 °C 1002.9 hPa Calm   1.6 km/h 91 % 0.0 mm
22:17 3.3 °C 2.0 °C 1002.9 hPa Calm   1.6 km/h 91 % 0.0 mm
22:22 3.2 °C 1.9 °C 1002.9 hPa Calm   1.6 km/h 91 % 0.0 mm
22:32 3.1 °C 1.8 °C 1002.9 hPa Calm   1.6 km/h 91 % 0.0 mm
22:37 3.1 °C 1.8 °C 1002.9 hPa Calm   1.6 km/h 91 % 0.0 mm
22:42 3.1 °C 1.8 °C 1003.3 hPa Calm   3.2 km/h 91 % 0.0 mm
22:47 3.1 °C 1.8 °C 1003.3 hPa Calm   4.8 km/h 91 % 0.0 mm
22:57 2.9 °C 1.6 °C 1003.3 hPa SE 3.2 km/h 4.8 km/h 91 % 0.0 mm
23:02 2.9 °C 1.6 °C 1003.3 hPa Calm   4.8 km/h 91 % 0.0 mm
23:12 2.7 °C 1.5 °C 1003.6 hPa Calm   3.2 km/h 92 % 0.0 mm
23:17 2.6 °C 1.4 °C 1003.6 hPa Calm   3.2 km/h 92 % 0.0 mm
23:22 2.6 °C 1.4 °C 1003.6 hPa Calm   3.2 km/h 92 % 0.0 mm
23:32 2.4 °C 1.4 °C 1003.6 hPa Calm   1.6 km/h 93 % 0.0 mm
23:37 2.4 °C 1.4 °C 1003.9 hPa Calm   1.6 km/h 93 % 0.0 mm
23:42 2.4 °C 1.4 °C 1003.9 hPa Calm   3.2 km/h 93 % 0.0 mm
23:47 2.4 °C 1.4 °C 1003.9 hPa Calm   4.8 km/h 93 % 0.0 mm
23:52 2.3 °C 1.3 °C 1003.9 hPa Calm   4.8 km/h 93 % 0.0 mm
23:57 2.2 °C 1.2 °C 1003.9 hPa Calm   4.8 km/h 93 % 0.0 mm
Meteo18
Compliments of Weather Underground - 4 mb

Script developed by  Jim McMurry - jmcmurry@mwt.net Adapted for the template by  Wim van der Kuil - Leuven-Template.eu

You find our weather info also at:

European Weather Network

Weather Underground

Equipment we use:

Weather-station
Davis Vue

Weather-program
Meteohub

Weather-server
Raspberry PI 2 B+

Provider
1 and 1

Davis Vue

Meteohub

Raspberry PI 2 B+

1 and 1